createdAt,value
2018-06-15T00:00:43.732Z,977.20
2018-06-15T00:01:43.987Z,977.19
2018-06-15T00:02:44.214Z,977.19
2018-06-15T00:03:44.467Z,977.18
2018-06-15T00:04:44.717Z,977.20
2018-06-15T00:05:44.941Z,977.21
2018-06-15T00:06:45.207Z,977.26
2018-06-15T00:07:45.413Z,977.26
2018-06-15T00:08:45.656Z,977.27
2018-06-15T00:09:45.901Z,977.26
2018-06-15T00:10:46.129Z,977.24
2018-06-15T00:11:46.359Z,977.22
2018-06-15T00:12:46.606Z,977.19
2018-06-15T00:13:46.837Z,977.19
2018-06-15T00:14:47.076Z,977.20
2018-06-15T00:15:47.301Z,977.21
2018-06-15T00:16:47.529Z,977.19
2018-06-15T00:17:47.780Z,977.15
2018-06-15T00:18:47.999Z,977.16
2018-06-15T00:19:48.248Z,977.15
2018-06-15T00:20:48.491Z,977.18
2018-06-15T00:21:48.738Z,977.17
2018-06-15T00:22:48.982Z,977.20
2018-06-15T00:23:49.199Z,977.15
2018-06-15T00:24:49.469Z,977.17
2018-06-15T00:25:49.678Z,977.18
2018-06-15T00:26:49.930Z,977.18
2018-06-15T00:27:50.171Z,977.19
2018-06-15T00:28:50.401Z,977.18
2018-06-15T00:29:50.663Z,977.20
2018-06-15T00:30:50.909Z,977.15
2018-06-15T00:31:51.144Z,977.14
2018-06-15T00:32:51.374Z,977.17
2018-06-15T00:33:51.619Z,977.13
2018-06-15T00:34:51.882Z,977.09
2018-06-15T00:35:52.084Z,977.10
2018-06-15T00:36:52.350Z,977.10
2018-06-15T00:37:52.571Z,977.10
2018-06-15T00:38:52.804Z,977.11
2018-06-15T00:39:53.039Z,977.17
2018-06-15T00:40:53.266Z,977.13
2018-06-15T00:41:53.512Z,977.13
2018-06-15T00:42:53.772Z,977.10
2018-06-15T00:43:54.012Z,977.11
2018-06-15T00:44:54.218Z,977.11
2018-06-15T00:45:54.476Z,977.11
2018-06-15T00:46:54.715Z,977.08
2018-06-15T00:47:54.959Z,977.03
2018-06-15T00:48:55.225Z,977.09
2018-06-15T00:49:55.407Z,977.06
2018-06-15T00:50:55.666Z,977.05
2018-06-15T00:51:55.897Z,977.07
2018-06-15T00:52:56.129Z,977.07
2018-06-15T00:53:56.377Z,977.07
2018-06-15T00:54:56.617Z,977.09
2018-06-15T00:55:56.836Z,977.10
2018-06-15T00:56:57.082Z,977.08
2018-06-15T00:57:57.318Z,977.08
2018-06-15T00:58:57.548Z,977.11
2018-06-15T00:59:57.797Z,977.10
2018-06-15T01:00:58.029Z,977.11
2018-06-15T01:01:58.279Z,977.11
2018-06-15T01:02:58.518Z,977.11
2018-06-15T01:03:58.738Z,977.09
2018-06-15T01:04:58.974Z,977.06
2018-06-15T01:05:59.235Z,977.05
2018-06-15T01:06:59.435Z,977.04
2018-06-15T01:07:59.675Z,977.04
2018-06-15T01:08:59.909Z,977.03
2018-06-15T01:10:00.173Z,977.03
2018-06-15T01:11:00.410Z,977.04
2018-06-15T01:12:00.646Z,977.02
2018-06-15T01:13:00.902Z,976.98
2018-06-15T01:14:01.120Z,976.98
2018-06-15T01:15:01.399Z,976.99
2018-06-15T01:16:01.612Z,976.99
2018-06-15T01:17:01.859Z,976.99
2018-06-15T01:18:02.130Z,976.99
2018-06-15T01:19:02.351Z,977.02
2018-06-15T01:20:02.587Z,977.00
2018-06-15T01:21:02.820Z,977.00
2018-06-15T01:22:03.060Z,977.00
2018-06-15T01:23:03.302Z,976.96
2018-06-15T01:24:03.533Z,976.97
2018-06-15T01:25:03.775Z,976.95
2018-06-15T01:26:04.021Z,976.91
2018-06-15T01:27:04.260Z,976.91
2018-06-15T01:28:04.478Z,976.90
2018-06-15T01:29:04.739Z,976.93
2018-06-15T01:30:04.968Z,976.88
2018-06-15T01:31:05.205Z,976.90
2018-06-15T01:32:05.448Z,976.94
2018-06-15T01:33:05.697Z,976.91
2018-06-15T01:34:05.927Z,976.94
2018-06-15T01:35:06.180Z,976.91
2018-06-15T01:36:06.410Z,976.93
2018-06-15T01:37:06.638Z,976.95
2018-06-15T01:38:06.868Z,976.92
2018-06-15T01:39:07.123Z,976.94
2018-06-15T01:40:07.327Z,976.90
2018-06-15T01:41:07.592Z,976.91
2018-06-15T01:42:07.816Z,976.89
2018-06-15T01:43:08.052Z,976.91
2018-06-15T01:44:08.291Z,976.93
2018-06-15T01:45:08.520Z,976.91
2018-06-15T01:46:08.762Z,976.89
2018-06-15T01:47:08.997Z,976.91
2018-06-15T01:48:09.250Z,976.90
2018-06-15T01:49:09.474Z,976.92
2018-06-15T01:50:09.719Z,976.92
2018-06-15T01:51:09.961Z,976.89
2018-06-15T01:52:10.208Z,976.87
2018-06-15T01:53:10.410Z,976.89
2018-06-15T01:54:10.674Z,976.90
2018-06-15T01:55:10.911Z,976.88
2018-06-15T01:56:11.165Z,976.90
2018-06-15T01:57:11.384Z,976.86
2018-06-15T01:58:11.654Z,976.87
2018-06-15T01:59:11.870Z,976.88
2018-06-15T02:00:12.103Z,976.89
2018-06-15T02:01:12.395Z,976.87
2018-06-15T02:02:12.569Z,976.87
2018-06-15T02:03:12.837Z,976.88
2018-06-15T02:04:13.067Z,976.89
2018-06-15T02:05:13.340Z,976.86
2018-06-15T02:06:13.572Z,976.86
2018-06-15T02:07:13.825Z,976.89
2018-06-15T02:08:14.063Z,976.87
2018-06-15T02:09:14.297Z,976.87
2018-06-15T02:10:14.527Z,976.86
2018-06-15T02:11:14.773Z,976.86
2018-06-15T02:12:14.991Z,976.82
2018-06-15T02:13:15.238Z,976.83
2018-06-15T02:14:15.475Z,976.85
2018-06-15T02:15:15.755Z,976.87
2018-06-15T02:16:15.979Z,976.87
2018-06-15T02:17:16.238Z,976.88
2018-06-15T02:18:16.475Z,976.88
2018-06-15T02:19:16.717Z,976.90
2018-06-15T02:20:16.965Z,976.89
2018-06-15T02:21:17.210Z,976.82
2018-06-15T02:22:17.437Z,976.85
2018-06-15T02:23:17.668Z,976.89
2018-06-15T02:24:17.911Z,976.85
2018-06-15T02:25:18.156Z,976.84
2018-06-15T02:26:18.391Z,976.84
2018-06-15T02:27:18.646Z,976.84
2018-06-15T02:28:18.909Z,976.83
2018-06-15T02:29:19.137Z,976.82
2018-06-15T02:30:19.351Z,976.80
2018-06-15T02:31:19.597Z,976.80
2018-06-15T02:32:19.830Z,976.82
2018-06-15T02:33:20.098Z,976.84
2018-06-15T02:34:20.307Z,976.83
2018-06-15T02:35:20.543Z,976.81
2018-06-15T02:36:20.778Z,976.83
2018-06-15T02:37:21.044Z,976.84
2018-06-15T02:38:21.269Z,976.80
2018-06-15T02:39:21.497Z,976.84
2018-06-15T02:40:21.727Z,976.83
2018-06-15T02:41:21.989Z,976.83
2018-06-15T02:42:22.229Z,976.83
2018-06-15T02:43:22.450Z,976.83
2018-06-15T02:44:22.692Z,976.79
2018-06-15T02:45:22.917Z,976.82
2018-06-15T02:46:23.172Z,976.81
2018-06-15T02:47:23.400Z,976.81
2018-06-15T02:48:23.646Z,976.79
2018-06-15T02:49:23.881Z,976.78
2018-06-15T02:50:24.094Z,976.76
2018-06-15T02:51:24.347Z,976.84
2018-06-15T02:52:24.555Z,976.85
2018-06-15T02:53:24.797Z,976.84
2018-06-15T02:54:25.051Z,976.86
2018-06-15T02:55:25.298Z,976.85
2018-06-15T02:56:25.527Z,976.83
2018-06-15T02:57:25.770Z,976.85
2018-06-15T02:58:26.012Z,976.89
2018-06-15T02:59:26.246Z,976.86
2018-06-15T03:00:26.515Z,976.87
2018-06-15T03:01:26.720Z,976.87
2018-06-15T03:02:26.962Z,976.85
2018-06-15T03:03:27.236Z,976.87
2018-06-15T03:04:27.443Z,976.85
2018-06-15T03:05:27.705Z,976.88
2018-06-15T03:06:27.925Z,976.86
2018-06-15T03:07:28.190Z,976.88
2018-06-15T03:08:28.434Z,976.89
2018-06-15T03:09:28.655Z,976.91
2018-06-15T03:10:28.901Z,976.91
2018-06-15T03:11:29.129Z,976.92
2018-06-15T03:12:29.396Z,976.92
2018-06-15T03:13:29.614Z,976.87
2018-06-15T03:14:29.839Z,976.88
2018-06-15T03:15:30.083Z,976.87
2018-06-15T03:16:30.316Z,976.87
2018-06-15T03:17:30.556Z,976.90
2018-06-15T03:18:30.809Z,976.90
2018-06-15T03:19:31.031Z,976.89
2018-06-15T03:20:31.273Z,976.90
2018-06-15T03:21:31.515Z,976.88
2018-06-15T03:22:31.748Z,976.88
2018-06-15T03:23:31.981Z,976.90
2018-06-15T03:24:32.223Z,976.89
2018-06-15T03:25:32.460Z,976.88
2018-06-15T03:26:32.717Z,976.91
2018-06-15T03:27:32.931Z,976.92
2018-06-15T03:28:33.174Z,976.88
2018-06-15T03:29:33.406Z,976.92
2018-06-15T03:30:33.657Z,976.87
2018-06-15T03:31:33.933Z,976.86
2018-06-15T03:32:34.155Z,976.91
2018-06-15T03:33:34.423Z,976.89
2018-06-15T03:34:34.635Z,976.92
2018-06-15T03:35:34.851Z,976.93
2018-06-15T03:36:35.105Z,976.89
2018-06-15T03:37:35.353Z,976.90
2018-06-15T03:38:35.560Z,976.91
2018-06-15T03:39:35.799Z,976.94
2018-06-15T03:40:36.043Z,976.89
2018-06-15T03:41:36.275Z,976.92
2018-06-15T03:42:36.501Z,976.90
2018-06-15T03:43:36.734Z,976.92
2018-06-15T03:44:36.979Z,976.91
2018-06-15T03:45:37.206Z,976.97
2018-06-15T03:46:37.438Z,976.95
2018-06-15T03:47:37.682Z,976.96
2018-06-15T03:48:37.925Z,976.92
2018-06-15T03:49:38.152Z,976.97
2018-06-15T03:50:38.386Z,976.96
2018-06-15T03:51:38.615Z,976.97
2018-06-15T03:52:38.862Z,976.94
2018-06-15T03:53:39.078Z,976.96
2018-06-15T03:54:39.334Z,976.95
2018-06-15T03:55:39.568Z,976.96
2018-06-15T03:56:39.799Z,976.99
2018-06-15T03:57:40.046Z,976.97
2018-06-15T03:58:40.263Z,976.96
2018-06-15T03:59:40.501Z,976.95
2018-06-15T04:00:40.732Z,976.97
2018-06-15T04:01:40.957Z,976.96
2018-06-15T04:02:41.207Z,976.95
2018-06-15T04:03:41.430Z,976.94
2018-06-15T04:04:41.686Z,977.00
2018-06-15T04:05:41.908Z,977.01
2018-06-15T04:06:42.140Z,976.94
2018-06-15T04:07:42.398Z,976.97
2018-06-15T04:08:42.621Z,977.01
2018-06-15T04:09:42.869Z,977.02
2018-06-15T04:10:43.099Z,977.05
2018-06-15T04:11:43.369Z,977.05
2018-06-15T04:12:43.590Z,977.08
2018-06-15T04:13:43.836Z,977.09
2018-06-15T04:14:44.075Z,977.12
2018-06-15T04:15:44.344Z,977.12
2018-06-15T04:16:44.559Z,977.14
2018-06-15T04:17:44.788Z,977.14
2018-06-15T04:18:45.015Z,977.13
2018-06-15T04:19:45.267Z,977.15
2018-06-15T04:20:45.490Z,977.11
2018-06-15T04:21:45.729Z,977.16
2018-06-15T04:22:45.970Z,977.14
2018-06-15T04:23:46.208Z,977.12
2018-06-15T04:24:46.444Z,977.13
2018-06-15T04:25:46.699Z,977.13
2018-06-15T04:26:46.925Z,977.16
2018-06-15T04:27:47.146Z,977.13
2018-06-15T04:28:47.374Z,977.18
2018-06-15T04:29:47.641Z,977.15
2018-06-15T04:30:47.851Z,977.13
2018-06-15T04:31:48.083Z,977.17
2018-06-15T04:32:48.317Z,977.20
2018-06-15T04:33:48.541Z,977.19
2018-06-15T04:34:48.781Z,977.20
2018-06-15T04:35:49.016Z,977.20
2018-06-15T04:36:49.298Z,977.20
2018-06-15T04:37:49.509Z,977.18
2018-06-15T04:38:49.741Z,977.21
2018-06-15T04:39:49.996Z,977.21
2018-06-15T04:40:50.244Z,977.24
2018-06-15T04:41:50.459Z,977.23
2018-06-15T04:42:50.695Z,977.21
2018-06-15T04:43:50.974Z,977.24
2018-06-15T04:44:51.163Z,977.22
2018-06-15T04:45:51.397Z,977.24
2018-06-15T04:46:51.656Z,977.22
2018-06-15T04:47:51.889Z,977.25
2018-06-15T04:48:52.127Z,977.28
2018-06-15T04:49:52.387Z,977.27
2018-06-15T04:50:52.661Z,977.24
2018-06-15T04:51:52.878Z,977.26
2018-06-15T04:52:53.143Z,977.27
2018-06-15T04:53:53.359Z,977.30
2018-06-15T04:54:53.602Z,977.26
2018-06-15T04:55:53.827Z,977.28
2018-06-15T04:56:54.082Z,977.27
2018-06-15T04:57:54.313Z,977.25
2018-06-15T04:58:54.550Z,977.26
2018-06-15T04:59:54.798Z,977.30
2018-06-15T05:00:55.038Z,977.29
2018-06-15T05:01:55.277Z,977.27
2018-06-15T05:02:55.520Z,977.24
2018-06-15T05:03:55.766Z,977.23
2018-06-15T05:04:56.012Z,977.26
2018-06-15T05:05:56.257Z,977.22
2018-06-15T05:06:56.501Z,977.21
2018-06-15T05:07:56.742Z,977.26
2018-06-15T05:08:56.987Z,977.30
2018-06-15T05:09:57.231Z,977.29
2018-06-15T05:10:57.480Z,977.30
2018-06-15T05:11:57.720Z,977.32
2018-06-15T05:12:57.959Z,977.34
2018-06-15T05:13:58.197Z,977.36
2018-06-15T05:14:58.445Z,977.36
2018-06-15T05:15:58.684Z,977.36
2018-06-15T05:16:58.926Z,977.35
2018-06-15T05:17:59.168Z,977.38
2018-06-15T05:18:59.412Z,977.38
2018-06-15T05:19:59.656Z,977.39
2018-06-15T05:20:59.897Z,977.41
2018-06-15T05:22:00.146Z,977.39
2018-06-15T05:23:00.383Z,977.38
2018-06-15T05:24:00.629Z,977.40
2018-06-15T05:25:00.859Z,977.44
2018-06-15T05:26:01.101Z,977.45
2018-06-15T05:27:01.344Z,977.46
2018-06-15T05:28:01.588Z,977.45
2018-06-15T05:29:01.832Z,977.49
2018-06-15T05:30:02.075Z,977.50
2018-06-15T05:31:02.321Z,977.47
2018-06-15T05:32:02.559Z,977.48
2018-06-15T05:33:02.796Z,977.49
2018-06-15T05:34:03.046Z,977.49
2018-06-15T05:35:03.288Z,977.52
2018-06-15T05:36:03.538Z,977.50
2018-06-15T05:37:03.777Z,977.52
2018-06-15T05:38:04.022Z,977.51
2018-06-15T05:39:04.267Z,977.52
2018-06-15T05:40:04.511Z,977.52
2018-06-15T05:41:04.754Z,977.56
2018-06-15T05:42:04.999Z,977.58
2018-06-15T05:43:05.243Z,977.57
2018-06-15T05:44:05.488Z,977.56
2018-06-15T05:45:05.732Z,977.58
2018-06-15T05:46:05.977Z,977.59
2018-06-15T05:47:06.220Z,977.60
2018-06-15T05:48:06.460Z,977.59
2018-06-15T05:49:06.703Z,977.57
2018-06-15T05:50:06.949Z,977.58
2018-06-15T05:51:07.193Z,977.60
2018-06-15T05:52:07.438Z,977.59
2018-06-15T05:53:07.681Z,977.54
2018-06-15T05:54:07.930Z,977.60
2018-06-15T05:55:08.176Z,977.60
2018-06-15T05:56:08.431Z,977.60
2018-06-15T05:57:08.666Z,977.62
2018-06-15T05:58:08.912Z,977.66
2018-06-15T05:59:09.157Z,977.61
2018-06-15T06:00:09.400Z,977.63
2018-06-15T06:01:09.646Z,977.64
2018-06-15T06:02:09.879Z,977.62
2018-06-15T06:03:10.140Z,977.68
2018-06-15T06:04:10.387Z,977.66
2018-06-15T06:05:10.614Z,977.69
2018-06-15T06:06:10.861Z,977.68
2018-06-15T06:07:11.106Z,977.70
2018-06-15T06:08:11.351Z,977.73
2018-06-15T06:09:11.595Z,977.70
2018-06-15T06:10:11.855Z,977.76
2018-06-15T06:11:12.079Z,977.73
2018-06-15T06:12:12.323Z,977.78
2018-06-15T06:13:12.567Z,977.80
2018-06-15T06:14:12.810Z,977.77
2018-06-15T06:15:13.058Z,977.81
2018-06-15T06:16:13.301Z,977.83
2018-06-15T06:17:13.547Z,977.84
2018-06-15T06:18:13.780Z,977.87
2018-06-15T06:19:14.025Z,977.89
2018-06-15T06:20:14.268Z,977.88
2018-06-15T06:21:14.510Z,977.90
2018-06-15T06:22:14.758Z,977.89
2018-06-15T06:23:15.007Z,977.91
2018-06-15T06:24:15.249Z,977.95
2018-06-15T06:25:15.495Z,977.93
2018-06-15T06:26:15.732Z,977.95
2018-06-15T06:27:15.974Z,977.98
2018-06-15T06:28:16.219Z,977.98
2018-06-15T06:29:16.468Z,977.94
2018-06-15T06:30:16.711Z,977.97
2018-06-15T06:31:16.959Z,977.98
2018-06-15T06:32:17.199Z,977.98
2018-06-15T06:33:17.444Z,977.95
2018-06-15T06:34:17.700Z,978.00
2018-06-15T06:35:17.931Z,978.01
2018-06-15T06:36:18.176Z,978.04
2018-06-15T06:37:18.428Z,978.02
2018-06-15T06:38:18.665Z,978.01
2018-06-15T06:39:18.916Z,978.02
2018-06-15T06:40:19.162Z,978.06
2018-06-15T06:41:19.407Z,978.04
2018-06-15T06:42:19.651Z,978.04
2018-06-15T06:43:19.897Z,978.08
2018-06-15T06:44:20.143Z,978.09
2018-06-15T06:45:20.388Z,978.04
2018-06-15T06:46:20.635Z,978.03
2018-06-15T06:47:20.878Z,978.08
2018-06-15T06:48:21.124Z,978.11
2018-06-15T06:49:21.369Z,978.14
2018-06-15T06:50:21.614Z,978.12
2018-06-15T06:51:21.861Z,978.16
2018-06-15T06:52:22.105Z,978.17
2018-06-15T06:53:22.350Z,978.16
2018-06-15T06:54:22.598Z,978.17
2018-06-15T06:55:22.843Z,978.17
2018-06-15T06:56:23.089Z,978.18
2018-06-15T06:57:23.335Z,978.21
2018-06-15T06:58:23.581Z,978.22
2018-06-15T06:59:23.828Z,978.24
2018-06-15T07:00:24.075Z,978.23
2018-06-15T07:01:24.322Z,978.23
2018-06-15T07:02:24.566Z,978.25
2018-06-15T07:03:24.812Z,978.24
2018-06-15T07:04:25.057Z,978.30
2018-06-15T07:05:25.329Z,978.28
2018-06-15T07:06:25.550Z,978.28
2018-06-15T07:07:25.796Z,978.28
2018-06-15T07:08:26.041Z,978.28
2018-06-15T07:09:26.287Z,978.25
2018-06-15T07:10:26.532Z,978.28
2018-06-15T07:11:26.779Z,978.30
2018-06-15T07:12:27.024Z,978.26
2018-06-15T07:13:27.270Z,978.26
2018-06-15T07:14:27.516Z,978.26
2018-06-15T07:15:27.763Z,978.25
2018-06-15T07:16:28.009Z,978.25
2018-06-15T07:17:28.254Z,978.25
2018-06-15T07:18:28.501Z,978.27
2018-06-15T07:19:28.747Z,978.28
2018-06-15T07:20:28.992Z,978.28
2018-06-15T07:21:29.237Z,978.29
2018-06-15T07:22:29.482Z,978.27
2018-06-15T07:23:29.731Z,978.31
2018-06-15T07:24:29.972Z,978.28
2018-06-15T07:25:30.218Z,978.31
2018-06-15T07:26:30.464Z,978.32
2018-06-15T07:27:30.709Z,978.36
2018-06-15T07:28:30.957Z,978.34
2018-06-15T07:29:31.202Z,978.37
2018-06-15T07:30:31.447Z,978.38
2018-06-15T07:31:31.693Z,978.37
2018-06-15T07:32:31.938Z,978.37
2018-06-15T07:33:32.224Z,978.39
2018-06-15T07:34:32.426Z,978.40
2018-06-15T07:35:32.672Z,978.38
2018-06-15T07:36:32.915Z,978.41
2018-06-15T07:37:33.165Z,978.42
2018-06-15T07:38:33.411Z,978.42
2018-06-15T07:39:33.663Z,978.38
2018-06-15T07:40:33.903Z,978.42
2018-06-15T07:41:34.147Z,978.46
2018-06-15T07:42:34.396Z,978.45
2018-06-15T07:43:34.645Z,978.44
2018-06-15T07:44:34.891Z,978.45
2018-06-15T07:45:35.147Z,978.45
2018-06-15T07:46:35.379Z,978.48
2018-06-15T07:47:35.625Z,978.49
2018-06-15T07:48:35.869Z,978.53
2018-06-15T07:49:36.113Z,978.56
2018-06-15T07:50:36.356Z,978.56
2018-06-15T07:51:36.599Z,978.58
2018-06-15T07:52:36.850Z,978.62
2018-06-15T07:53:37.089Z,978.59
2018-06-15T07:54:37.334Z,978.55
2018-06-15T07:55:37.585Z,978.57
2018-06-15T07:56:37.830Z,978.55
2018-06-15T07:57:38.072Z,978.54
2018-06-15T07:58:38.319Z,978.55
2018-06-15T07:59:38.576Z,978.56
2018-06-15T08:00:38.817Z,978.56
2018-06-15T08:01:39.062Z,978.55
2018-06-15T08:02:39.308Z,978.56
2018-06-15T08:03:39.574Z,978.56
2018-06-15T08:04:39.799Z,978.53
2018-06-15T08:05:40.047Z,978.55
2018-06-15T08:06:40.293Z,978.58
2018-06-15T08:07:40.540Z,978.59
2018-06-15T08:08:40.787Z,978.62
2018-06-15T08:09:41.032Z,978.62
2018-06-15T08:10:41.279Z,978.62
2018-06-15T08:11:41.524Z,978.58
2018-06-15T08:12:41.772Z,978.61
2018-06-15T08:13:42.025Z,978.61
2018-06-15T08:14:42.275Z,978.63
2018-06-15T08:15:42.516Z,978.63
2018-06-15T08:16:42.759Z,978.66
2018-06-15T08:17:43.013Z,978.70
2018-06-15T08:18:43.261Z,978.71
2018-06-15T08:19:43.510Z,978.66
2018-06-15T08:20:43.750Z,978.68
2018-06-15T08:21:43.997Z,978.69
2018-06-15T08:22:44.259Z,978.68
2018-06-15T08:23:44.510Z,978.68
2018-06-15T08:24:44.754Z,978.69
2018-06-15T08:25:45.006Z,978.66
2018-06-15T08:26:45.260Z,978.66
2018-06-15T08:27:45.518Z,978.66
2018-06-15T08:28:45.738Z,978.66
2018-06-15T08:29:45.976Z,978.69
2018-06-15T08:30:46.227Z,978.73
2018-06-15T08:31:46.467Z,978.69
2018-06-15T08:32:46.711Z,978.71
2018-06-15T08:33:46.959Z,978.71
2018-06-15T08:34:47.207Z,978.71
2018-06-15T08:35:47.444Z,978.71
2018-06-15T08:36:47.702Z,978.71
2018-06-15T08:37:47.992Z,978.70
2018-06-15T08:38:48.233Z,978.74
2018-06-15T08:39:48.484Z,978.72
2018-06-15T08:40:48.748Z,978.72
2018-06-15T08:41:48.992Z,978.70
2018-06-15T08:42:49.246Z,978.70
2018-06-15T08:43:49.485Z,978.72
2018-06-15T08:44:49.742Z,978.73
2018-06-15T08:45:49.985Z,978.72
2018-06-15T08:46:50.225Z,978.71
2018-06-15T08:47:50.472Z,978.71
2018-06-15T08:48:50.728Z,978.70
2018-06-15T08:49:50.971Z,978.70
2018-06-15T08:50:51.222Z,978.74
2018-06-15T08:51:51.484Z,978.67
2018-06-15T08:52:51.785Z,978.73
2018-06-15T08:53:51.968Z,978.72
2018-06-15T08:54:52.215Z,978.67
2018-06-15T08:55:52.462Z,978.65
2018-06-15T08:56:52.719Z,978.69
2018-06-15T08:57:52.964Z,978.69
2018-06-15T08:58:53.209Z,978.69
2018-06-15T08:59:53.455Z,978.68
2018-06-15T09:00:53.705Z,978.74
2018-06-15T09:01:54.026Z,978.70
2018-06-15T09:02:54.214Z,978.69
2018-06-15T09:03:54.447Z,978.69
2018-06-15T09:04:54.706Z,978.73
2018-06-15T09:05:54.931Z,978.71
2018-06-15T09:06:55.185Z,978.69
2018-06-15T09:07:55.437Z,978.68
2018-06-15T09:08:55.685Z,978.71
2018-06-15T09:09:55.939Z,978.72
2018-06-15T09:10:56.176Z,978.71
2018-06-15T09:11:56.420Z,978.70
2018-06-15T09:12:56.668Z,978.71
2018-06-15T09:13:56.919Z,978.73
2018-06-15T09:14:57.169Z,978.69
2018-06-15T09:15:57.422Z,978.65
2018-06-15T09:16:57.674Z,978.68
2018-06-15T09:17:57.924Z,978.65
2018-06-15T09:18:58.182Z,978.63
2018-06-15T09:19:58.430Z,978.66
2018-06-15T09:20:58.683Z,978.67
2018-06-15T09:21:58.932Z,978.64
2018-06-15T09:22:59.183Z,978.63
2018-06-15T09:23:59.433Z,978.62
2018-06-15T09:24:59.686Z,978.61
2018-06-15T09:25:59.920Z,978.57
2018-06-15T09:27:00.182Z,978.59
2018-06-15T09:28:00.422Z,978.62
2018-06-15T09:29:00.674Z,978.60
2018-06-15T09:30:00.927Z,978.57
2018-06-15T09:31:01.179Z,978.67
2018-06-15T09:32:01.432Z,978.64
2018-06-15T09:33:01.683Z,978.63
2018-06-15T09:34:01.936Z,978.67
2018-06-15T09:35:02.187Z,978.69
2018-06-15T09:36:02.441Z,978.69
2018-06-15T09:37:02.696Z,978.69
2018-06-15T09:38:02.942Z,978.71
2018-06-15T09:39:03.228Z,978.70
2018-06-15T09:40:03.446Z,978.77
2018-06-15T09:41:03.699Z,978.76
2018-06-15T09:42:03.949Z,978.74
2018-06-15T09:43:04.201Z,978.74
2018-06-15T09:44:04.450Z,978.73
2018-06-15T09:45:04.702Z,978.73
2018-06-15T09:46:04.953Z,978.78
2018-06-15T09:47:05.206Z,978.80
2018-06-15T09:48:05.459Z,978.80
2018-06-15T09:49:05.712Z,978.82
2018-06-15T09:50:05.961Z,978.81
2018-06-15T09:51:06.214Z,978.80
2018-06-15T09:52:06.465Z,978.78
2018-06-15T09:53:06.719Z,978.82
2018-06-15T09:54:06.979Z,978.82
2018-06-15T09:55:07.232Z,978.83
2018-06-15T09:56:07.491Z,978.83
2018-06-15T09:57:07.737Z,978.82
2018-06-15T09:58:07.984Z,978.79
2018-06-15T09:59:08.233Z,978.81
2018-06-15T10:00:08.490Z,978.85
2018-06-15T10:01:08.736Z,978.85
2018-06-15T10:02:08.988Z,978.84
2018-06-15T10:03:09.232Z,978.87
2018-06-15T10:04:09.489Z,978.88
2018-06-15T10:05:09.737Z,978.83
2018-06-15T10:06:10.052Z,978.82
2018-06-15T10:07:10.240Z,978.79
2018-06-15T10:08:10.488Z,978.82
2018-06-15T10:09:10.735Z,978.81
2018-06-15T10:10:10.983Z,978.82
2018-06-15T10:11:11.233Z,978.81
2018-06-15T10:12:11.490Z,978.84
2018-06-15T10:13:11.744Z,978.84
2018-06-15T10:14:11.999Z,978.86
2018-06-15T10:15:12.255Z,978.89
2018-06-15T10:16:12.507Z,978.91
2018-06-15T10:17:12.766Z,978.91
2018-06-15T10:18:13.018Z,978.91
2018-06-15T10:19:13.280Z,978.96
2018-06-15T10:20:13.518Z,978.93
2018-06-15T10:21:13.777Z,978.94
2018-06-15T10:22:14.027Z,978.93
2018-06-15T10:23:14.281Z,978.93
2018-06-15T10:24:14.536Z,978.89
2018-06-15T10:25:14.787Z,978.86
2018-06-15T10:26:15.042Z,978.90
2018-06-15T10:27:15.355Z,978.90
2018-06-15T10:28:15.550Z,978.88
2018-06-15T10:29:15.795Z,978.87
2018-06-15T10:30:16.056Z,978.88
2018-06-15T10:31:16.297Z,978.82
2018-06-15T10:32:16.556Z,978.85
2018-06-15T10:33:16.796Z,978.90
2018-06-15T10:34:17.057Z,978.89
2018-06-15T10:35:17.293Z,978.91
2018-06-15T10:36:17.546Z,978.87
2018-06-15T10:37:17.816Z,978.81
2018-06-15T10:38:18.053Z,978.80
2018-06-15T10:39:18.365Z,978.86
2018-06-15T10:40:18.559Z,978.85
2018-06-15T10:41:18.821Z,978.90
2018-06-15T10:42:19.066Z,978.91
2018-06-15T10:43:19.359Z,978.93
2018-06-15T10:44:19.576Z,979.08
2018-06-15T10:45:19.833Z,978.90
2018-06-15T10:46:20.087Z,978.88
2018-06-15T10:47:20.340Z,978.87
2018-06-15T10:48:20.597Z,978.87
2018-06-15T10:49:20.850Z,978.85
2018-06-15T10:50:21.107Z,978.81
2018-06-15T10:51:21.362Z,978.81
2018-06-15T10:52:21.616Z,978.84
2018-06-15T10:53:21.873Z,978.88
2018-06-15T10:54:22.132Z,978.85
2018-06-15T10:55:22.387Z,978.81
2018-06-15T10:56:22.647Z,978.76
2018-06-15T10:57:22.903Z,978.74
2018-06-15T10:58:23.160Z,978.70
2018-06-15T10:59:23.413Z,978.71
2018-06-15T11:00:23.672Z,978.81
2018-06-15T11:01:23.921Z,978.85
2018-06-15T11:02:24.183Z,978.81
2018-06-15T11:03:24.433Z,978.85
2018-06-15T11:04:24.689Z,978.82
2018-06-15T11:05:24.946Z,978.84
2018-06-15T11:06:25.202Z,978.84
2018-06-15T11:07:25.458Z,978.82
2018-06-15T11:08:25.739Z,978.79
2018-06-15T11:09:25.986Z,978.81
2018-06-15T11:10:26.241Z,978.87
2018-06-15T11:11:26.495Z,978.86
2018-06-15T11:12:26.751Z,978.87
2018-06-15T11:13:27.002Z,978.83
2018-06-15T11:14:27.277Z,978.90
2018-06-15T11:15:27.517Z,978.82
2018-06-15T11:16:27.767Z,978.87
2018-06-15T11:17:28.028Z,978.77
2018-06-15T11:18:28.282Z,978.89
2018-06-15T11:19:28.538Z,978.88
2018-06-15T11:20:28.795Z,978.70
2018-06-15T11:21:29.053Z,978.69
2018-06-15T11:22:29.307Z,978.78
2018-06-15T11:23:29.564Z,978.88
2018-06-15T11:24:29.817Z,979.00
2018-06-15T11:25:30.071Z,978.98
2018-06-15T11:26:30.325Z,978.93
2018-06-15T11:27:30.580Z,978.98
2018-06-15T11:28:30.835Z,978.84
2018-06-15T11:29:31.093Z,979.67
2018-06-15T11:30:31.351Z,979.25
2018-06-15T11:31:31.597Z,978.65
2018-06-15T11:32:31.852Z,978.58
2018-06-15T11:33:32.105Z,978.53
2018-06-15T11:34:32.363Z,978.57
2018-06-15T11:35:32.618Z,978.54
2018-06-15T11:36:32.871Z,978.50
2018-06-15T11:37:33.127Z,978.53
2018-06-15T11:38:33.387Z,978.55
2018-06-15T11:39:33.641Z,978.51
2018-06-15T11:40:33.893Z,978.49
2018-06-15T11:41:34.164Z,978.50
2018-06-15T11:42:34.406Z,978.56
2018-06-15T11:43:34.834Z,978.50
2018-06-15T11:44:35.081Z,978.46
2018-06-15T11:45:35.332Z,978.44
2018-06-15T11:46:35.583Z,978.37
2018-06-15T11:47:35.835Z,978.39
2018-06-15T11:48:36.103Z,978.41
2018-06-15T11:49:36.337Z,978.43
2018-06-15T11:50:36.587Z,978.43
2018-06-15T11:51:36.839Z,978.38
2018-06-15T11:52:37.090Z,978.39
2018-06-15T11:53:37.341Z,978.42
2018-06-15T11:54:37.594Z,978.44
2018-06-15T11:55:37.842Z,978.42
2018-06-15T11:56:38.092Z,978.45
2018-06-15T11:57:38.340Z,978.41
2018-06-15T11:58:38.589Z,978.42
2018-06-15T11:59:38.840Z,978.42
2018-06-15T12:00:39.089Z,978.42
2018-06-15T12:01:39.361Z,978.43
2018-06-15T12:02:39.587Z,978.40
2018-06-15T12:03:39.838Z,978.42
2018-06-15T12:04:40.087Z,978.43
2018-06-15T12:05:40.337Z,978.41
2018-06-15T12:06:40.591Z,978.41
2018-06-15T12:07:40.835Z,978.42
2018-06-15T12:08:41.084Z,978.43
2018-06-15T12:09:41.336Z,978.41
2018-06-15T12:10:41.585Z,978.40
2018-06-15T12:11:41.834Z,978.39
2018-06-15T12:12:42.090Z,978.37
2018-06-15T12:13:42.332Z,978.38
2018-06-15T12:14:42.582Z,978.38
2018-06-15T12:15:42.832Z,978.37
2018-06-15T12:16:43.082Z,978.37
2018-06-15T12:17:43.330Z,978.36
2018-06-15T12:18:43.582Z,978.37
2018-06-15T12:19:43.832Z,978.36
2018-06-15T12:20:44.079Z,978.36
2018-06-15T12:21:44.329Z,978.40
2018-06-15T12:22:44.578Z,978.39
2018-06-15T12:23:44.831Z,978.39
2018-06-15T12:24:45.082Z,978.41
2018-06-15T12:25:45.331Z,978.41
2018-06-15T12:26:45.579Z,978.37
2018-06-15T12:27:45.826Z,978.36
2018-06-15T12:28:46.074Z,978.36
2018-06-15T12:29:46.322Z,978.35
2018-06-15T12:30:46.574Z,978.38
2018-06-15T12:31:46.823Z,978.40